Time;durP1;ratioP1;P1;durP2;ratioP2;P2;SDS_P1;SDS_P2;PMS_P1;PMS_P2;Temp;Humidity;BMP_temperature;BMP_pressure;BME280_temperature;BME280_humidity;BME280_pressure;Samples;Min_cycle;Max_cycle;Signal;HPM_P1;HPM_P2
2022/11/16 00:00:47;;;;;;;14.88;12.73;;;;;;;;;;5049862;28;20049;-76
2022/11/16 00:03:16;;;;;;;15.20;12.68;;;;;;;;;;5051306;28;20045;-77
2022/11/16 00:05:42;;;;;;;14.60;11.88;;;;;;;;;;5050977;28;20114;-77
2022/11/16 00:08:08;;;;;;;17.23;13.90;;;;;;;;;;5045415;28;20041;-77
2022/11/16 00:10:34;;;;;;;15.48;13.27;;;;;;;;;;5051255;28;20087;-78
2022/11/16 00:13:00;;;;;;;16.40;13.40;;;;;;;;;;5053636;28;20072;-77
2022/11/16 00:15:26;;;;;;;15.65;13.95;;;;;;;;;;5045220;28;20055;-78
2022/11/16 00:17:52;;;;;;;16.67;14.02;;;;;;;;;;5051423;28;20492;-78
2022/11/16 00:20:18;;;;;;;15.13;13.52;;;;;;;;;;5048222;28;20046;-78
2022/11/16 00:22:44;;;;;;;16.48;14.05;;;;;;;;;;5049263;28;20123;-78
2022/11/16 00:25:10;;;;;;;14.40;12.75;;;;;;;;;;5077092;28;20555;-78
2022/11/16 00:27:36;;;;;;;18.55;14.65;;;;;;;;;;5050630;28;20378;-78
2022/11/16 00:30:03;;;;;;;17.58;14.77;;;;;;;;;;5049201;28;20052;-78
2022/11/16 00:32:30;;;;;;;17.77;14.93;;;;;;;;;;5048729;28;20469;-78
2022/11/16 00:34:56;;;;;;;19.60;15.40;;;;;;;;;;5046010;28;20139;-78
2022/11/16 00:37:22;;;;;;;19.23;16.50;;;;;;;;;;5050952;28;20153;-78
2022/11/16 00:39:48;;;;;;;22.35;15.98;;;;;;;;;;5048740;28;20400;-78
2022/11/16 00:42:14;;;;;;;17.92;15.75;;;;;;;;;;5045524;28;20102;-78
2022/11/16 00:44:40;;;;;;;19.98;16.02;;;;;;;;;;5042928;28;20037;-78
2022/11/16 00:47:06;;;;;;;19.63;16.75;;;;;;;;;;5048666;28;20045;-78
2022/11/16 00:49:32;;;;;;;19.63;16.88;;;;;;;;;;5049326;28;20048;-78
2022/11/16 00:51:58;;;;;;;17.45;15.60;;;;;;;;;;5049345;28;20045;-78
2022/11/16 00:54:24;;;;;;;20.10;17.33;;;;;;;;;;5050680;28;20057;-78
2022/11/16 00:56:50;;;;;;;19.83;16.65;;;;;;;;;;5044224;28;20042;-78
2022/11/16 00:59:16;;;;;;;21.48;18.40;;;;;;;;;;5043002;28;20447;-78
2022/11/16 01:01:42;;;;;;;19.50;17.33;;;;;;;;;;5041883;28;20048;-78
2022/11/16 01:04:08;;;;;;;20.13;16.77;;;;;;;;;;5048456;28;20390;-78
2022/11/16 01:06:34;;;;;;;19.98;16.92;;;;;;;;;;5047779;28;20351;-77
2022/11/16 01:09:00;;;;;;;21.15;18.60;;;;;;;;;;5050193;28;20056;-78
2022/11/16 01:14:11;;;;;;;24.48;18.38;;;;;;;;;;5048946;28;20076;-77
2022/11/16 01:16:37;;;;;;;22.92;18.52;;;;;;;;;;5045256;28;20079;-78
2022/11/16 01:19:03;;;;;;;21.08;18.77;;;;;;;;;;5049535;28;20081;-78
2022/11/16 01:21:29;;;;;;;22.52;19.13;;;;;;;;;;5044804;28;20048;-78
2022/11/16 01:23:56;;;;;;;21.30;18.42;;;;;;;;;;5048512;28;20145;-78
2022/11/16 01:26:22;;;;;;;21.73;18.45;;;;;;;;;;5047367;28;20048;-78
2022/11/16 01:28:48;;;;;;;21.55;18.35;;;;;;;;;;5045382;28;20500;-78
2022/11/16 01:31:14;;;;;;;20.60;18.30;;;;;;;;;;5046786;28;20151;-78
2022/11/16 01:33:43;;;;;;;21.45;18.30;;;;;;;;;;5047628;28;20124;-78
2022/11/16 01:36:13;;;;;;;20.63;17.85;;;;;;;;;;5062740;28;20144;-78
2022/11/16 01:38:40;;;;;;;23.08;19.95;;;;;;;;;;5046813;28;20055;-78
2022/11/16 01:41:06;;;;;;;21.25;18.27;;;;;;;;;;5045465;28;20045;-78
2022/11/16 01:43:49;;;;;;;22.92;19.27;;;;;;;;;;5048275;28;20033;-78
2022/11/16 01:46:14;;;;;;;21.97;17.87;;;;;;;;;;5038816;28;20567;-78
2022/11/16 01:48:41;;;;;;;19.98;17.85;;;;;;;;;;5043271;28;20045;-79
2022/11/16 01:51:07;;;;;;;23.90;18.92;;;;;;;;;;5042700;28;20041;-78
2022/11/16 01:53:33;;;;;;;20.45;17.80;;;;;;;;;;5040207;28;20045;-78
2022/11/16 01:55:59;;;;;;;20.35;17.58;;;;;;;;;;5041196;28;20834;-77
2022/11/16 01:58:25;;;;;;;21.70;17.98;;;;;;;;;;5041059;28;20617;-78
2022/11/16 02:00:51;;;;;;;22.90;19.45;;;;;;;;;;5039755;28;20116;-77
2022/11/16 02:03:18;;;;;;;22.48;18.38;;;;;;;;;;5041756;28;20479;-78
2022/11/16 02:06:08;;;;;;;21.27;18.38;;;;;;;;;;5043098;28;20097;-77
2022/11/16 02:11:24;;;;;;;20.60;18.33;;;;;;;;;;5039162;28;20049;-77
2022/11/16 02:13:50;;;;;;;20.23;17.55;;;;;;;;;;5047509;28;20044;-78
2022/11/16 02:16:27;;;;;;;20.38;17.38;;;;;;;;;;5052648;28;20040;-78
2022/11/16 02:18:53;;;;;;;18.95;16.55;;;;;;;;;;5047269;28;20052;-78
2022/11/16 02:21:33;;;;;;;18.88;16.88;;;;;;;;;;5048671;28;20049;-77
2022/11/16 02:23:59;;;;;;;20.45;16.80;;;;;;;;;;5041422;28;20047;-77
2022/11/16 02:26:40;;;;;;;18.98;16.40;;;;;;;;;;5046815;28;20408;-78
2022/11/16 02:29:06;;;;;;;20.42;17.52;;;;;;;;;;5044519;28;20080;-78
2022/11/16 02:31:37;;;;;;;19.38;15.90;;;;;;;;;;5049945;28;20045;-78
2022/11/16 02:34:04;;;;;;;18.27;16.30;;;;;;;;;;5044057;28;20044;-78
2022/11/16 02:36:31;;;;;;;19.80;17.40;;;;;;;;;;5047088;28;20477;-77
2022/11/16 02:39:00;;;;;;;19.60;17.50;;;;;;;;;;5039190;28;20048;-77
2022/11/16 02:41:28;;;;;;;19.27;17.15;;;;;;;;;;5052014;28;20045;-78
2022/11/16 02:44:01;;;;;;;18.77;16.63;;;;;;;;;;5046391;28;20621;-78
2022/11/16 02:46:30;;;;;;;18.73;16.77;;;;;;;;;;5055725;28;20131;-77
2022/11/16 02:48:57;;;;;;;20.27;16.63;;;;;;;;;;5055368;28;20052;-78
2022/11/16 02:51:25;;;;;;;18.80;16.77;;;;;;;;;;5049261;28;20033;-77
2022/11/16 02:54:02;;;;;;;19.52;17.08;;;;;;;;;;5051751;28;20370;-78
2022/11/16 02:56:29;;;;;;;19.00;16.38;;;;;;;;;;5056854;28;20041;-78
2022/11/16 02:58:55;;;;;;;19.88;16.60;;;;;;;;;;5082555;28;20045;-78
2022/11/16 03:01:27;;;;;;;19.42;17.40;;;;;;;;;;5054366;28;20053;-78
2022/11/16 03:04:05;;;;;;;19.58;17.48;;;;;;;;;;5052332;28;20044;-78
2022/11/16 03:06:34;;;;;;;20.70;17.85;;;;;;;;;;5051520;28;20120;-77
2022/11/16 03:09:02;;;;;;;18.88;16.88;;;;;;;;;;5049976;28;20044;-78
2022/11/16 03:14:16;;;;;;;20.55;16.17;;;;;;;;;;5046424;28;20492;-78
2022/11/16 03:16:43;;;;;;;20.20;17.52;;;;;;;;;;5052035;28;20060;-78
2022/11/16 03:19:12;;;;;;;19.55;17.42;;;;;;;;;;5049471;28;20048;-78
2022/11/16 03:21:43;;;;;;;19.45;16.90;;;;;;;;;;5049512;28;20041;-78
2022/11/16 03:24:10;;;;;;;17.45;15.57;;;;;;;;;;5051438;28;20041;-77
2022/11/16 03:26:48;;;;;;;20.25;17.38;;;;;;;;;;5048867;28;20041;-79
2022/11/16 03:29:20;;;;;;;19.50;17.13;;;;;;;;;;5048240;28;20448;-78
2022/11/16 03:31:48;;;;;;;20.08;17.08;;;;;;;;;;5048933;28;20413;-78
2022/11/16 03:34:16;;;;;;;19.15;17.13;;;;;;;;;;5046549;28;20044;-77
2022/11/16 03:36:44;;;;;;;18.60;16.70;;;;;;;;;;5050385;28;20115;-77
2022/11/16 03:39:12;;;;;;;18.58;16.58;;;;;;;;;;5054030;28;20052;-77
2022/11/16 03:41:40;;;;;;;18.42;16.42;;;;;;;;;;5044617;28;20049;-77
2022/11/16 03:44:07;;;;;;;19.13;17.05;;;;;;;;;;5053682;28;20045;-78
2022/11/16 03:46:34;;;;;;;20.85;18.65;;;;;;;;;;5049198;28;20060;-78
2022/11/16 03:49:00;;;;;;;20.83;18.33;;;;;;;;;;5082534;28;20377;-78
2022/11/16 03:51:26;;;;;;;18.67;16.67;;;;;;;;;;5052210;28;20049;-77
2022/11/16 03:53:52;;;;;;;19.33;17.27;;;;;;;;;;5049295;28;20049;-77
2022/11/16 03:56:19;;;;;;;22.63;17.15;;;;;;;;;;5051686;28;20115;-77
2022/11/16 03:58:45;;;;;;;19.63;16.90;;;;;;;;;;5048055;28;20393;-77
2022/11/16 04:01:11;;;;;;;18.50;16.50;;;;;;;;;;5049047;28;20071;-77
2022/11/16 04:03:37;;;;;;;18.52;16.40;;;;;;;;;;5051009;28;20473;-77
2022/11/16 04:25:26;;;;;;;16.45;14.70;;;;;;;;;;5046821;28;20049;-77
2022/11/16 04:28:12;;;;;;;17.23;14.23;;;;;;;;;;5045931;28;20037;-78
2022/11/16 04:38:54;;;;;;;15.70;11.73;;;;;;;;;;5080174;28;20084;-77
2022/11/16 04:44:04;;;;;;;15.43;11.90;;;;;;;;;;5041310;28;20060;-78
2022/11/16 04:49:29;;;;;;;15.32;12.38;;;;;;;;;;5046749;28;20083;-77
2022/11/16 04:51:55;;;;;;;18.98;12.80;;;;;;;;;;5052044;28;20076;-77
2022/11/16 04:54:23;;;;;;;16.50;11.20;;;;;;;;;;5050483;28;20385;-77
2022/11/16 04:56:49;;;;;;;13.75;10.35;;;;;;;;;;5049716;28;20052;-77
2022/11/16 04:59:15;;;;;;;15.32;11.18;;;;;;;;;;5054448;28;20469;-77
2022/11/16 05:04:26;;;;;;;17.95;12.57;;;;;;;;;;5051068;28;20492;-77
2022/11/16 05:06:52;;;;;;;16.55;12.65;;;;;;;;;;5049396;28;20071;-77
2022/11/16 05:09:18;;;;;;;15.27;12.35;;;;;;;;;;5050142;28;20170;-77
2022/11/16 05:11:44;;;;;;;14.15;11.77;;;;;;;;;;5048787;28;20075;-77
2022/11/16 05:14:10;;;;;;;13.13;11.30;;;;;;;;;;5049031;28;20078;-77
2022/11/16 05:16:37;;;;;;;13.70;10.52;;;;;;;;;;5061602;28;20500;-77
2022/11/16 05:21:48;;;;;;;15.45;11.07;;;;;;;;;;5047616;28;20041;-77
2022/11/16 05:24:32;;;;;;;15.57;11.32;;;;;;;;;;5047134;28;20044;-77
2022/11/16 05:26:58;;;;;;;13.60;10.07;;;;;;;;;;5046639;28;20144;-77
2022/11/16 05:29:24;;;;;;;13.68;10.40;;;;;;;;;;5060479;28;20032;-77
2022/11/16 05:31:50;;;;;;;13.00;9.05;;;;;;;;;;5045888;28;20041;-77
2022/11/16 05:34:16;;;;;;;13.52;9.55;;;;;;;;;;5048179;28;20484;-77
2022/11/16 05:36:42;;;;;;;15.02;9.63;;;;;;;;;;5042675;28;20053;-77
2022/11/16 05:39:08;;;;;;;15.15;9.07;;;;;;;;;;5077955;28;20395;-77
2022/11/16 05:41:34;;;;;;;15.38;8.82;;;;;;;;;;5047349;28;20140;-77
2022/11/16 05:44:00;;;;;;;13.05;8.07;;;;;;;;;;5080113;28;20033;-78
2022/11/16 05:46:26;;;;;;;12.82;7.47;;;;;;;;;;5046967;28;20451;-77
2022/11/16 05:48:52;;;;;;;8.77;6.78;;;;;;;;;;5045997;28;20045;-78
2022/11/16 05:51:18;;;;;;;9.35;6.25;;;;;;;;;;5053011;28;20045;-78
2022/11/16 05:53:44;;;;;;;8.23;6.20;;;;;;;;;;5040821;28;20041;-77
2022/11/16 05:56:13;;;;;;;8.45;5.93;;;;;;;;;;5050188;28;20076;-77
2022/11/16 05:58:39;;;;;;;10.80;6.57;;;;;;;;;;5044128;28;20760;-77
2022/11/16 06:01:08;;;;;;;12.88;6.63;;;;;;;;;;5043791;28;20049;-78
2022/11/16 06:03:35;;;;;;;10.20;7.20;;;;;;;;;;5040227;28;20298;-77
2022/11/16 06:06:01;;;;;;;11.25;7.03;;;;;;;;;;5075153;28;20045;-77
2022/11/16 06:08:27;;;;;;;9.18;6.65;;;;;;;;;;5044770;28;20037;-77
2022/11/16 06:10:53;;;;;;;8.75;7.30;;;;;;;;;;5045378;28;20152;-77
2022/11/16 06:13:19;;;;;;;11.80;7.68;;;;;;;;;;5076199;28;20052;-77
2022/11/16 06:15:45;;;;;;;10.20;7.20;;;;;;;;;;5043795;28;20045;-78
2022/11/16 06:18:11;;;;;;;10.68;7.25;;;;;;;;;;5052823;28;20500;-77
2022/11/16 06:20:38;;;;;;;8.77;6.78;;;;;;;;;;5042375;28;20143;-77
2022/11/16 06:23:04;;;;;;;9.90;7.72;;;;;;;;;;5080575;28;20896;-78
2022/11/16 06:25:30;;;;;;;11.88;8.65;;;;;;;;;;5048401;28;20171;-78
2022/11/16 06:27:56;;;;;;;10.25;8.70;;;;;;;;;;5047350;28;20189;-78
2022/11/16 06:30:25;;;;;;;9.52;7.60;;;;;;;;;;5052368;28;20084;-78
2022/11/16 06:32:51;;;;;;;10.55;7.15;;;;;;;;;;5049221;28;20439;-78
2022/11/16 06:35:17;;;;;;;12.68;7.55;;;;;;;;;;5050937;28;20137;-78
2022/11/16 06:37:43;;;;;;;10.45;7.43;;;;;;;;;;5071507;28;20487;-78
2022/11/16 06:40:10;;;;;;;9.77;7.75;;;;;;;;;;5051216;28;20120;-77
2022/11/16 06:42:36;;;;;;;9.52;8.05;;;;;;;;;;5050187;28;20408;-78
2022/11/16 06:45:02;;;;;;;11.38;9.73;;;;;;;;;;5042572;28;20546;-78
2022/11/16 06:47:28;;;;;;;12.25;9.77;;;;;;;;;;5051857;28;20045;-78
2022/11/16 06:49:54;;;;;;;13.82;10.75;;;;;;;;;;5052466;28;20053;-78
2022/11/16 06:52:20;;;;;;;12.88;10.63;;;;;;;;;;5052619;28;20452;-78
2022/11/16 06:54:46;;;;;;;15.02;10.70;;;;;;;;;;5051278;28;20044;-78
2022/11/16 06:57:12;;;;;;;15.23;11.45;;;;;;;;;;5051990;28;20063;-78
2022/11/16 06:59:38;;;;;;;15.65;11.88;;;;;;;;;;5051460;28;20041;-78
2022/11/16 07:02:04;;;;;;;12.90;11.50;;;;;;;;;;5051082;28;20079;-78
2022/11/16 07:04:31;;;;;;;15.20;11.60;;;;;;;;;;5055959;28;20113;-78
2022/11/16 07:06:57;;;;;;;15.48;11.57;;;;;;;;;;5052474;28;20076;-77
2022/11/16 07:09:23;;;;;;;16.80;12.52;;;;;;;;;;5054214;28;20049;-78
2022/11/16 07:11:49;;;;;;;13.93;11.40;;;;;;;;;;5047272;28;20052;-78
2022/11/16 07:14:16;;;;;;;13.65;11.23;;;;;;;;;;5049858;28;20044;-77
2022/11/16 07:16:42;;;;;;;15.15;11.70;;;;;;;;;;5048388;28;20045;-77
2022/11/16 07:19:08;;;;;;;14.27;10.68;;;;;;;;;;5042676;28;20072;-77
2022/11/16 07:21:36;;;;;;;13.38;11.05;;;;;;;;;;5044418;28;20746;-77
2022/11/16 07:24:02;;;;;;;14.93;11.65;;;;;;;;;;5081292;28;20084;-78
2022/11/16 07:26:30;;;;;;;12.95;10.18;;;;;;;;;;5066991;28;20136;-77
2022/11/16 07:28:57;;;;;;;14.63;10.93;;;;;;;;;;5050058;28;20048;-78
2022/11/16 07:31:24;;;;;;;14.55;11.27;;;;;;;;;;5051851;28;20051;-77
2022/11/16 07:33:54;;;;;;;13.75;11.57;;;;;;;;;;5048634;28;20056;-78
2022/11/16 07:36:20;;;;;;;13.50;11.15;;;;;;;;;;5050817;28;20106;-76
2022/11/16 07:38:46;;;;;;;14.80;11.93;;;;;;;;;;5046860;28;20045;-77
2022/11/16 07:41:13;;;;;;;13.80;12.10;;;;;;;;;;5052334;28;20476;-77
2022/11/16 07:43:39;;;;;;;15.18;12.70;;;;;;;;;;5054382;28;20101;-77
2022/11/16 07:46:16;;;;;;;15.07;12.10;;;;;;;;;;5051902;28;20048;-77
2022/11/16 07:48:42;;;;;;;16.70;12.75;;;;;;;;;;5083500;28;20495;-77
2022/11/16 07:51:09;;;;;;;18.35;13.02;;;;;;;;;;5046879;28;20404;-77
2022/11/16 07:53:35;;;;;;;16.10;13.25;;;;;;;;;;5051292;28;20040;-77
2022/11/16 07:56:02;;;;;;;16.83;13.38;;;;;;;;;;5050319;28;20056;-77
2022/11/16 07:58:29;;;;;;;20.02;14.65;;;;;;;;;;5082354;28;20033;-77
2022/11/16 08:00:55;;;;;;;17.00;14.70;;;;;;;;;;5044294;28;20044;-77
2022/11/16 08:03:21;;;;;;;17.20;14.63;;;;;;;;;;5046893;28;20041;-77
2022/11/16 08:05:47;;;;;;;21.75;15.25;;;;;;;;;;5051815;28;20052;-78
2022/11/16 08:08:13;;;;;;;18.70;15.82;;;;;;;;;;5052453;28;20048;-77
2022/11/16 08:10:39;;;;;;;19.23;15.88;;;;;;;;;;5055295;28;20049;-77
2022/11/16 08:13:05;;;;;;;20.38;15.70;;;;;;;;;;5045364;28;20614;-77
2022/11/16 08:15:31;;;;;;;18.67;15.85;;;;;;;;;;5050170;28;20044;-78
2022/11/16 08:17:57;;;;;;;23.40;15.90;;;;;;;;;;5049223;28;20078;-77
2022/11/16 08:20:24;;;;;;;20.00;15.82;;;;;;;;;;5050742;28;20068;-77
2022/11/16 08:22:50;;;;;;;22.35;15.93;;;;;;;;;;5049523;28;20040;-77
2022/11/16 08:25:16;;;;;;;21.75;17.08;;;;;;;;;;5076851;28;20048;-77
2022/11/16 08:27:42;;;;;;;22.58;17.23;;;;;;;;;;5043975;28;20045;-77
2022/11/16 08:30:08;;;;;;;20.25;16.02;;;;;;;;;;5050800;28;20041;-77
2022/11/16 08:32:35;;;;;;;21.23;16.42;;;;;;;;;;5050344;28;20129;-77
2022/11/16 08:35:01;;;;;;;22.95;16.90;;;;;;;;;;5049504;28;20045;-77
2022/11/16 08:37:27;;;;;;;21.65;17.02;;;;;;;;;;5052404;28;20040;-77
2022/11/16 08:39:55;;;;;;;20.77;17.13;;;;;;;;;;5048741;28;20890;-76
2022/11/16 08:42:21;;;;;;;21.90;17.85;;;;;;;;;;5045230;28;20075;-77
2022/11/16 08:44:47;;;;;;;20.42;16.75;;;;;;;;;;5049116;28;20049;-77
2022/11/16 08:47:13;;;;;;;24.60;17.20;;;;;;;;;;5056999;28;20055;-77
2022/11/16 08:49:39;;;;;;;20.42;16.50;;;;;;;;;;5046561;28;20270;-77
2022/11/16 08:52:05;;;;;;;22.98;17.17;;;;;;;;;;5039544;28;20057;-78
2022/11/16 08:54:31;;;;;;;23.67;17.20;;;;;;;;;;5042664;28;20048;-77
2022/11/16 08:56:57;;;;;;;23.88;17.50;;;;;;;;;;5039211;28;20472;-78
2022/11/16 08:59:23;;;;;;;21.75;17.73;;;;;;;;;;5042782;28;20128;-77
2022/11/16 09:01:49;;;;;;;22.42;17.98;;;;;;;;;;5079578;28;20048;-77
2022/11/16 09:04:18;;;;;;;21.92;16.77;;;;;;;;;;5057057;28;20041;-77
2022/11/16 09:06:45;;;;;;;21.20;17.30;;;;;;;;;;5052055;28;20053;-78
2022/11/16 09:09:11;;;;;;;21.92;16.65;;;;;;;;;;5070067;28;20044;-78
2022/11/16 09:11:37;;;;;;;20.65;16.98;;;;;;;;;;5054172;28;20051;-78
2022/11/16 09:14:03;;;;;;;19.95;16.75;;;;;;;;;;5047065;28;20523;-78
2022/11/16 09:16:29;;;;;;;21.50;17.17;;;;;;;;;;5048513;28;20052;-78
2022/11/16 09:18:55;;;;;;;23.27;17.50;;;;;;;;;;5045759;28;20045;-78
2022/11/16 09:21:26;;;;;;;21.58;16.77;;;;;;;;;;5049639;28;20485;-78
2022/11/16 09:23:53;;;;;;;19.38;14.63;;;;;;;;;;5049265;28;20045;-78
2022/11/16 09:26:21;;;;;;;19.75;14.60;;;;;;;;;;5051670;28;20442;-78
2022/11/16 09:28:48;;;;;;;16.17;12.55;;;;;;;;;;5046605;28;20037;-78
2022/11/16 09:31:14;;;;;;;13.07;10.48;;;;;;;;;;5048161;28;20052;-78
2022/11/16 09:33:40;;;;;;;14.30;9.88;;;;;;;;;;5048013;28;20392;-78
2022/11/16 09:36:07;;;;;;;14.93;9.75;;;;;;;;;;5044905;28;20053;-78
2022/11/16 09:38:40;;;;;;;12.00;9.23;;;;;;;;;;5043421;28;20440;-78
2022/11/16 09:41:12;;;;;;;13.13;8.73;;;;;;;;;;5084049;28;20511;-77
2022/11/16 09:43:58;;;;;;;13.15;7.78;;;;;;;;;;5045167;28;20550;-78
2022/11/16 09:46:26;;;;;;;11.02;7.53;;;;;;;;;;5081212;28;20036;-78
2022/11/16 09:48:56;;;;;;;15.65;6.88;;;;;;;;;;5044259;28;20064;-78
2022/11/16 09:51:23;;;;;;;15.43;6.78;;;;;;;;;;5044346;28;20542;-78
2022/11/16 09:53:55;;;;;;;13.18;6.70;;;;;;;;;;5077360;28;20345;-78
2022/11/16 09:56:24;;;;;;;7.70;5.55;;;;;;;;;;5058201;28;20041;-78
2022/11/16 09:58:59;;;;;;;9.05;5.22;;;;;;;;;;5048645;28;20492;-78
2022/11/16 10:01:27;;;;;;;11.25;5.70;;;;;;;;;;5047941;28;20041;-77
2022/11/16 10:03:57;;;;;;;10.07;6.10;;;;;;;;;;5079908;28;20315;-77
2022/11/16 10:06:27;;;;;;;13.25;5.55;;;;;;;;;;5050439;28;20053;-78
2022/11/16 10:08:55;;;;;;;8.57;5.20;;;;;;;;;;5045673;28;20041;-78
2022/11/16 10:11:29;;;;;;;10.07;5.05;;;;;;;;;;5053943;28;20052;-78
2022/11/16 10:14:14;;;;;;;10.80;5.57;;;;;;;;;;5044999;28;20123;-78
2022/11/16 10:17:03;;;;;;;9.60;5.82;;;;;;;;;;5049855;28;20507;-78
2022/11/16 10:19:45;;;;;;;15.60;5.70;;;;;;;;;;5036471;28;20052;-76
2022/11/16 10:22:30;;;;;;;9.15;5.70;;;;;;;;;;5043012;28;20102;-77
2022/11/16 10:24:57;;;;;;;11.10;5.97;;;;;;;;;;5045899;28;20072;-76
2022/11/16 10:27:41;;;;;;;9.88;6.35;;;;;;;;;;5050192;28;20111;-76
2022/11/16 10:30:12;;;;;;;10.00;6.30;;;;;;;;;;5047152;28;20080;-77
2022/11/16 10:32:48;;;;;;;10.20;6.25;;;;;;;;;;5046166;28;20057;-76
2022/11/16 10:35:35;;;;;;;10.20;6.60;;;;;;;;;;5048713;28;20568;-77
2022/11/16 10:38:03;;;;;;;12.18;5.97;;;;;;;;;;5040999;28;20037;-77
2022/11/16 10:40:30;;;;;;;13.95;6.55;;;;;;;;;;5049337;28;20500;-76
2022/11/16 10:43:05;;;;;;;7.25;5.90;;;;;;;;;;5049009;28;20037;-76
2022/11/16 10:45:35;;;;;;;11.05;6.10;;;;;;;;;;5082072;28;20040;-74
2022/11/16 10:48:12;;;;;;;12.32;6.47;;;;;;;;;;5045146;28;20384;-75
2022/11/16 10:50:46;;;;;;;10.18;5.97;;;;;;;;;;5048181;28;20045;-75
2022/11/16 10:53:25;;;;;;;11.45;6.30;;;;;;;;;;5044354;28;20049;-74
2022/11/16 10:56:12;;;;;;;9.80;5.60;;;;;;;;;;5047448;28;20074;-74
2022/11/16 10:58:49;;;;;;;9.90;6.88;;;;;;;;;;5045865;28;20048;-74
2022/11/16 11:01:27;;;;;;;10.35;6.25;;;;;;;;;;5042416;28;20507;-75
2022/11/16 11:03:53;;;;;;;12.70;6.70;;;;;;;;;;5045416;28;20045;-74
2022/11/16 11:06:19;;;;;;;11.80;6.68;;;;;;;;;;5045235;28;20442;-74
2022/11/16 11:08:45;;;;;;;10.40;5.90;;;;;;;;;;5045089;28;20056;-74
2022/11/16 11:14:15;;;;;;;10.80;6.68;;;;;;;;;;5049272;28;20549;-74
2022/11/16 11:16:41;;;;;;;11.68;7.72;;;;;;;;;;5044051;28;20069;-74
2022/11/16 11:19:27;;;;;;;13.60;8.43;;;;;;;;;;5051624;28;20047;-74
2022/11/16 11:21:58;;;;;;;12.20;7.53;;;;;;;;;;5049632;28;20127;-75
2022/11/16 11:24:25;;;;;;;13.85;7.10;;;;;;;;;;5052169;28;20124;-74
2022/11/16 11:26:53;;;;;;;15.10;7.80;;;;;;;;;;5049500;28;20448;-74
2022/11/16 11:29:22;;;;;;;12.00;7.63;;;;;;;;;;5051890;28;20049;-74
2022/11/16 11:31:49;;;;;;;11.68;7.55;;;;;;;;;;5045169;28;20602;-75
2022/11/16 11:34:18;;;;;;;12.30;7.38;;;;;;;;;;5046502;28;20480;-75
2022/11/16 11:37:10;;;;;;;12.57;7.07;;;;;;;;;;5049291;28;20496;-74
2022/11/16 11:39:36;;;;;;;10.98;7.10;;;;;;;;;;5048945;28;20057;-75
2022/11/16 11:42:18;;;;;;;9.68;7.45;;;;;;;;;;5048804;28;20125;-75
2022/11/16 11:45:02;;;;;;;11.48;8.02;;;;;;;;;;5085944;28;20041;-75
2022/11/16 11:47:39;;;;;;;11.50;6.90;;;;;;;;;;5049525;28;20130;-74
2022/11/16 11:50:11;;;;;;;12.73;6.50;;;;;;;;;;5050884;28;20045;-75
2022/11/16 11:52:41;;;;;;;12.45;6.53;;;;;;;;;;5048001;28;20135;-75
2022/11/16 11:55:08;;;;;;;9.57;6.53;;;;;;;;;;5053938;28;20037;-74
2022/11/16 11:57:39;;;;;;;13.52;6.63;;;;;;;;;;5046962;28;20049;-74
2022/11/16 12:00:05;;;;;;;9.88;6.82;;;;;;;;;;5050900;28;20054;-75
2022/11/16 12:02:58;;;;;;;16.35;7.00;;;;;;;;;;5048384;28;20056;-75
2022/11/16 12:05:24;;;;;;;11.77;6.13;;;;;;;;;;5053146;28;20093;-74
2022/11/16 12:08:11;;;;;;;11.95;6.47;;;;;;;;;;5048129;28;20045;-76
2022/11/16 12:10:37;;;;;;;10.80;6.07;;;;;;;;;;5043734;28;20068;-75
2022/11/16 12:13:12;;;;;;;9.40;5.78;;;;;;;;;;5055569;28;20406;-75
2022/11/16 12:15:49;;;;;;;11.38;5.93;;;;;;;;;;5077821;28;20163;-75
2022/11/16 12:18:15;;;;;;;11.40;6.22;;;;;;;;;;5047046;28;20511;-76
2022/11/16 12:20:44;;;;;;;13.88;6.47;;;;;;;;;;5048856;28;20041;-76
2022/11/16 12:23:29;;;;;;;12.00;6.13;;;;;;;;;;5048490;28;20053;-75
2022/11/16 12:26:04;;;;;;;12.15;6.25;;;;;;;;;;5050533;28;20041;-76
2022/11/16 12:28:48;;;;;;;15.02;6.40;;;;;;;;;;5050823;28;20048;-76
2022/11/16 12:31:33;;;;;;;10.18;5.75;;;;;;;;;;5082251;28;20107;-76
2022/11/16 12:34:09;;;;;;;9.43;5.30;;;;;;;;;;5040271;28;20052;-76
2022/11/16 12:36:45;;;;;;;7.57;4.93;;;;;;;;;;5042614;28;20045;-75
2022/11/16 12:39:27;;;;;;;8.90;4.72;;;;;;;;;;5048106;28;20100;-75
2022/11/16 12:42:02;;;;;;;8.43;4.80;;;;;;;;;;5046296;28;20045;-75
2022/11/16 12:44:47;;;;;;;8.60;4.80;;;;;;;;;;5051125;28;21111;-74
2022/11/16 12:47:14;;;;;;;7.57;4.40;;;;;;;;;;5045762;28;20397;-75
2022/11/16 12:49:59;;;;;;;11.32;4.50;;;;;;;;;;5047118;28;20508;-75
2022/11/16 12:52:30;;;;;;;12.50;4.30;;;;;;;;;;5063237;28;20060;-75
2022/11/16 12:55:12;;;;;;;7.45;4.18;;;;;;;;;;5082126;28;20055;-75
2022/11/16 12:57:44;;;;;;;9.68;4.10;;;;;;;;;;5047404;28;20067;-74
2022/11/16 13:00:12;;;;;;;8.27;4.00;;;;;;;;;;5049593;28;20041;-76
2022/11/16 13:02:57;;;;;;;7.88;3.55;;;;;;;;;;5048907;28;20449;-75
2022/11/16 13:05:43;;;;;;;6.60;3.78;;;;;;;;;;5047013;28;20053;-74
2022/11/16 13:08:36;;;;;;;7.90;3.88;;;;;;;;;;5054861;28;20053;-74
2022/11/16 13:11:14;;;;;;;8.52;3.25;;;;;;;;;;5049644;28;20064;-75
2022/11/16 13:13:41;;;;;;;8.18;3.38;;;;;;;;;;5047074;28;20489;-74
2022/11/16 13:16:07;;;;;;;8.00;3.40;;;;;;;;;;5052396;28;20098;-75
2022/11/16 13:18:37;;;;;;;4.93;2.95;;;;;;;;;;5048084;28;20130;-75
2022/11/16 13:21:10;;;;;;;7.13;3.03;;;;;;;;;;5078024;28;20098;-76
2022/11/16 13:23:55;;;;;;;5.57;3.60;;;;;;;;;;5045114;28;20067;-75
2022/11/16 13:26:21;;;;;;;7.25;3.40;;;;;;;;;;5047992;28;20507;-75
2022/11/16 13:29:01;;;;;;;8.27;3.15;;;;;;;;;;5043566;28;20668;-77
2022/11/16 13:31:30;;;;;;;10.38;3.58;;;;;;;;;;5050692;28;20523;-77
2022/11/16 13:33:59;;;;;;;5.97;3.47;;;;;;;;;;5047540;28;20051;-77
2022/11/16 13:36:31;;;;;;;8.95;3.30;;;;;;;;;;5047598;28;20241;-77
2022/11/16 13:38:57;;;;;;;7.43;3.22;;;;;;;;;;5045767;28;20036;-77
2022/11/16 13:41:46;;;;;;;4.90;3.08;;;;;;;;;;5049536;28;20102;-79
2022/11/16 13:44:19;;;;;;;6.93;3.00;;;;;;;;;;5039571;28;20084;-77
2022/11/16 13:46:54;;;;;;;6.88;3.22;;;;;;;;;;5050783;28;20131;-77
2022/11/16 13:49:22;;;;;;;6.00;3.00;;;;;;;;;;5045879;28;20045;-77
2022/11/16 13:51:55;;;;;;;7.35;3.13;;;;;;;;;;5048973;28;20071;-77
2022/11/16 13:54:32;;;;;;;5.88;2.90;;;;;;;;;;5049324;28;20106;-77
2022/11/16 13:56:59;;;;;;;6.05;2.80;;;;;;;;;;5049909;28;20053;-77
2022/11/16 13:59:30;;;;;;;6.13;2.85;;;;;;;;;;5046361;28;20041;-77
2022/11/16 14:01:57;;;;;;;8.45;3.38;;;;;;;;;;5049235;28;20047;-77
2022/11/16 14:04:33;;;;;;;5.80;2.80;;;;;;;;;;5046792;28;20049;-77
2022/11/16 14:07:00;;;;;;;5.53;3.35;;;;;;;;;;5047954;28;20072;-77
2022/11/16 14:09:48;;;;;;;6.57;2.80;;;;;;;;;;5081556;28;20534;-77
2022/11/16 14:12:32;;;;;;;7.32;3.22;;;;;;;;;;5047933;28;20489;-77
2022/11/16 14:15:05;;;;;;;6.35;3.20;;;;;;;;;;5079892;28;20105;-77
2022/11/16 14:17:48;;;;;;;5.47;3.17;;;;;;;;;;5046589;28;20175;-77
2022/11/16 14:20:15;;;;;;;6.93;2.90;;;;;;;;;;5037617;28;20045;-78
2022/11/16 14:22:49;;;;;;;8.45;3.00;;;;;;;;;;5048512;28;20118;-78
2022/11/16 14:25:24;;;;;;;4.78;2.70;;;;;;;;;;5078296;28;20132;-78
2022/11/16 14:27:56;;;;;;;5.75;2.83;;;;;;;;;;5052520;28;20050;-77
2022/11/16 14:30:24;;;;;;;6.07;2.60;;;;;;;;;;5050042;28;20056;-78
2022/11/16 14:32:51;;;;;;;8.75;3.22;;;;;;;;;;5049504;28;20045;-79
2022/11/16 14:35:37;;;;;;;8.13;2.80;;;;;;;;;;5042128;28;20088;-78
2022/11/16 14:38:18;;;;;;;9.68;3.05;;;;;;;;;;5046979;28;20047;-79
2022/11/16 14:40:46;;;;;;;6.35;2.55;;;;;;;;;;5049977;28;20052;-77
2022/11/16 14:43:17;;;;;;;4.03;2.67;;;;;;;;;;5044440;28;20052;-79
2022/11/16 14:45:46;;;;;;;9.43;3.25;;;;;;;;;;5051928;28;20044;-78
2022/11/16 14:48:17;;;;;;;4.05;2.60;;;;;;;;;;5083625;28;20397;-78
2022/11/16 14:50:45;;;;;;;7.03;2.90;;;;;;;;;;5050931;28;20048;-78
2022/11/16 14:53:14;;;;;;;5.70;2.50;;;;;;;;;;5054376;28;20040;-78
2022/11/16 14:55:41;;;;;;;8.98;3.15;;;;;;;;;;5051272;28;20147;-78
2022/11/16 14:58:07;;;;;;;5.93;2.95;;;;;;;;;;5052060;28;20045;-78
2022/11/16 15:00:34;;;;;;;5.00;2.83;;;;;;;;;;5046001;28;20059;-78
2022/11/16 15:03:04;;;;;;;7.18;3.20;;;;;;;;;;5047274;28;20045;-77
2022/11/16 15:05:33;;;;;;;6.25;2.60;;;;;;;;;;5051019;28;20094;-77
2022/11/16 15:08:00;;;;;;;8.55;2.97;;;;;;;;;;5048555;28;20036;-80
2022/11/16 15:10:27;;;;;;;6.30;2.63;;;;;;;;;;5050706;28;20049;-77
2022/11/16 15:12:55;;;;;;;6.93;2.85;;;;;;;;;;5053422;28;20072;-77
2022/11/16 15:15:24;;;;;;;6.20;2.88;;;;;;;;;;5050747;28;20037;-78
2022/11/16 15:17:59;;;;;;;6.60;3.25;;;;;;;;;;5052293;28;20049;-78
2022/11/16 15:20:27;;;;;;;6.10;2.70;;;;;;;;;;5048592;28;20049;-78
2022/11/16 15:22:54;;;;;;;6.40;3.00;;;;;;;;;;5047058;28;20041;-78
2022/11/16 15:25:27;;;;;;;5.72;2.70;;;;;;;;;;5057281;28;20040;-78
2022/11/16 15:27:53;;;;;;;6.95;2.97;;;;;;;;;;5066931;28;20095;-77
2022/11/16 15:30:21;;;;;;;9.05;3.33;;;;;;;;;;5052396;28;20049;-77